createdAt,value
2022-10-16T00:01:20.395Z,12.70
2022-10-16T00:03:48.286Z,12.70
2022-10-16T00:06:17.062Z,12.70
2022-10-16T00:08:43.940Z,12.70
2022-10-16T00:11:16.406Z,12.70
2022-10-16T00:13:44.624Z,12.80
2022-10-16T00:16:12.210Z,12.80
2022-10-16T00:18:39.785Z,12.80
2022-10-16T00:21:09.752Z,12.80
2022-10-16T00:23:37.239Z,12.80
2022-10-16T00:26:10.848Z,12.80
2022-10-16T00:28:37.711Z,12.80
2022-10-16T00:31:07.065Z,12.80
2022-10-16T00:33:34.426Z,12.80
2022-10-16T00:36:03.075Z,12.80
2022-10-16T00:38:29.954Z,12.80
2022-10-16T00:40:57.123Z,12.80
2022-10-16T00:43:49.092Z,12.80
2022-10-16T00:46:21.338Z,12.80
2022-10-16T00:49:00.100Z,12.80
2022-10-16T00:51:32.634Z,12.70
2022-10-16T00:54:00.007Z,12.70
2022-10-16T00:56:27.267Z,12.70
2022-10-16T00:58:54.080Z,12.70
2022-10-16T01:01:21.006Z,12.70
2022-10-16T01:03:47.975Z,12.70
2022-10-16T01:09:34.142Z,12.60
2022-10-16T01:12:25.371Z,12.60
2022-10-16T01:15:11.669Z,12.50
2022-10-16T01:17:56.851Z,12.50
2022-10-16T01:20:27.692Z,12.50
2022-10-16T01:23:18.537Z,12.50
2022-10-16T01:26:10.160Z,12.40
2022-10-16T01:28:52.615Z,12.40
2022-10-16T01:31:23.349Z,12.40
2022-10-16T01:34:01.727Z,12.40
2022-10-16T01:36:36.910Z,12.40
2022-10-16T01:39:04.495Z,12.40
2022-10-16T01:41:49.696Z,12.40
2022-10-16T01:44:22.668Z,12.40
2022-10-16T01:46:52.787Z,12.40
2022-10-16T01:49:22.031Z,12.40
2022-10-16T01:51:53.289Z,12.40
2022-10-16T01:54:21.308Z,12.40
2022-10-16T01:56:50.873Z,12.40
2022-10-16T01:59:22.224Z,12.40
2022-10-16T02:01:53.798Z,12.40
2022-10-16T02:04:30.297Z,12.40
2022-10-16T02:06:57.376Z,12.30
2022-10-16T02:09:24.250Z,12.30
2022-10-16T02:11:53.792Z,12.30
2022-10-16T02:14:23.075Z,12.30
2022-10-16T02:16:49.818Z,12.30
2022-10-16T02:19:20.506Z,12.30
2022-10-16T02:21:57.741Z,12.30
2022-10-16T02:24:42.557Z,12.30
2022-10-16T02:27:34.536Z,12.30
2022-10-16T02:30:11.401Z,12.30
2022-10-16T02:32:43.035Z,12.30
2022-10-16T02:35:10.882Z,12.30
2022-10-16T02:37:39.853Z,12.30
2022-10-16T02:40:08.248Z,12.30
2022-10-16T02:42:40.540Z,12.30
2022-10-16T02:45:08.784Z,12.30
2022-10-16T02:47:35.517Z,12.30
2022-10-16T02:50:02.422Z,12.30
2022-10-16T02:52:29.274Z,12.20
2022-10-16T02:54:56.288Z,12.20
2022-10-16T02:57:23.263Z,12.20
2022-10-16T02:59:50.190Z,12.20
2022-10-16T03:02:16.989Z,12.20
2022-10-16T03:04:43.748Z,12.20
2022-10-16T03:07:10.439Z,12.20
2022-10-16T03:09:37.183Z,12.20
2022-10-16T03:12:04.264Z,12.20
2022-10-16T03:14:30.966Z,12.20
2022-10-16T03:16:57.684Z,12.20
2022-10-16T03:19:25.425Z,12.20
2022-10-16T03:21:52.131Z,12.20
2022-10-16T03:24:18.930Z,12.30
2022-10-16T03:26:45.639Z,12.30
2022-10-16T03:29:12.514Z,12.30
2022-10-16T03:31:39.195Z,12.30
2022-10-16T03:34:05.928Z,12.30
2022-10-16T03:36:32.786Z,12.30
2022-10-16T03:38:59.526Z,12.30
2022-10-16T03:41:26.265Z,12.30
2022-10-16T03:43:53.049Z,12.30
2022-10-16T03:46:19.758Z,12.30
2022-10-16T03:48:46.690Z,12.30
2022-10-16T03:51:13.423Z,12.30
2022-10-16T03:53:40.163Z,12.20
2022-10-16T03:56:07.143Z,12.30
2022-10-16T03:58:34.161Z,12.20
2022-10-16T04:01:00.940Z,12.20
2022-10-16T04:03:27.799Z,12.20
2022-10-16T04:05:54.570Z,12.20
2022-10-16T04:08:21.469Z,12.10
2022-10-16T04:10:48.494Z,12.10
2022-10-16T04:13:15.367Z,12.10
2022-10-16T04:15:42.173Z,12.10
2022-10-16T04:18:09.115Z,12.10
2022-10-16T04:20:35.871Z,12.10
2022-10-16T04:23:02.665Z,12.10
2022-10-16T04:25:29.591Z,12.20
2022-10-16T04:27:56.526Z,12.20
2022-10-16T04:30:24.188Z,12.20
2022-10-16T04:32:51.994Z,12.20
2022-10-16T04:35:20.167Z,12.20
2022-10-16T04:37:47.032Z,12.20
2022-10-16T04:40:14.375Z,12.20
2022-10-16T04:42:41.710Z,12.20
2022-10-16T04:45:12.003Z,12.20
2022-10-16T04:47:41.642Z,12.20
2022-10-16T04:50:08.803Z,12.20
2022-10-16T04:55:08.042Z,12.20
2022-10-16T04:57:34.846Z,12.20
2022-10-16T05:00:01.831Z,12.20
2022-10-16T05:02:28.613Z,12.30
2022-10-16T05:04:55.430Z,12.20
2022-10-16T05:07:22.142Z,12.30
2022-10-16T05:09:48.840Z,12.30
2022-10-16T05:12:15.587Z,12.30
2022-10-16T05:14:42.330Z,12.30
2022-10-16T05:17:09.113Z,12.30
2022-10-16T05:19:35.959Z,12.30
2022-10-16T05:22:02.829Z,12.30
2022-10-16T05:24:29.629Z,12.30
2022-10-16T05:26:56.385Z,12.30
2022-10-16T05:29:23.500Z,12.30
2022-10-16T05:31:54.003Z,12.30
2022-10-16T05:34:21.792Z,12.30
2022-10-16T05:36:48.638Z,12.30
2022-10-16T05:39:16.289Z,12.40
2022-10-16T05:41:43.708Z,12.40
2022-10-16T05:44:10.945Z,12.30
2022-10-16T05:46:37.686Z,12.30
2022-10-16T05:49:04.400Z,12.30
2022-10-16T05:51:31.150Z,12.30
2022-10-16T05:53:57.864Z,12.30
2022-10-16T05:56:24.644Z,12.30
2022-10-16T05:58:51.357Z,12.30
2022-10-16T06:01:21.693Z,12.30
2022-10-16T06:03:48.550Z,12.30
2022-10-16T06:06:17.659Z,12.30
2022-10-16T06:08:46.438Z,12.30
2022-10-16T06:11:19.348Z,12.30
2022-10-16T06:13:46.988Z,12.30
2022-10-16T06:16:14.396Z,12.30
2022-10-16T06:18:41.522Z,12.30
2022-10-16T06:21:13.703Z,12.30
2022-10-16T06:23:40.553Z,12.30
2022-10-16T06:26:12.650Z,12.30
2022-10-16T06:28:40.149Z,12.30
2022-10-16T06:31:08.754Z,12.30
2022-10-16T06:33:36.793Z,12.40
2022-10-16T06:36:07.965Z,12.40
2022-10-16T06:38:34.926Z,12.50
2022-10-16T06:41:01.774Z,12.50
2022-10-16T06:43:33.868Z,12.50
2022-10-16T06:46:01.550Z,12.50
2022-10-16T06:48:28.862Z,12.50
2022-10-16T06:51:00.043Z,12.60
2022-10-16T06:53:29.587Z,12.60
2022-10-16T06:55:56.378Z,12.60
2022-10-16T06:58:23.801Z,12.70
2022-10-16T07:00:56.300Z,12.70
2022-10-16T07:03:23.036Z,12.70
2022-10-16T07:05:49.767Z,12.70
2022-10-16T07:08:16.525Z,12.80
2022-10-16T07:10:43.262Z,12.80
2022-10-16T07:13:10.027Z,12.80
2022-10-16T07:15:36.764Z,12.90
2022-10-16T07:18:03.517Z,12.80
2022-10-16T07:20:30.216Z,12.90
2022-10-16T07:22:56.910Z,12.90
2022-10-16T07:25:23.849Z,12.80
2022-10-16T07:27:50.615Z,12.80
2022-10-16T07:30:17.444Z,12.80
2022-10-16T07:32:44.186Z,12.80
2022-10-16T07:35:10.922Z,12.80
2022-10-16T07:37:37.683Z,12.80
2022-10-16T07:40:04.957Z,12.80
2022-10-16T07:42:31.679Z,12.90
2022-10-16T07:44:58.419Z,13.00
2022-10-16T07:47:25.548Z,13.10
2022-10-16T07:49:52.492Z,13.20
2022-10-16T07:52:19.194Z,13.30
2022-10-16T07:54:45.921Z,13.30
2022-10-16T07:57:12.996Z,13.40
2022-10-16T07:59:39.715Z,13.50
2022-10-16T08:02:06.528Z,13.60
2022-10-16T08:04:33.229Z,13.70
2022-10-16T08:07:00.022Z,13.80
2022-10-16T08:09:26.763Z,13.90
2022-10-16T08:11:53.711Z,13.90
2022-10-16T08:14:20.460Z,14.00
2022-10-16T08:16:47.201Z,14.10
2022-10-16T08:19:14.105Z,14.10
2022-10-16T08:21:40.838Z,14.20
2022-10-16T08:24:07.593Z,14.30
2022-10-16T08:26:34.320Z,14.30
2022-10-16T08:29:01.077Z,14.50
2022-10-16T08:31:28.343Z,14.50
2022-10-16T08:33:55.241Z,14.60
2022-10-16T08:36:22.030Z,14.60
2022-10-16T08:38:50.556Z,14.70
2022-10-16T08:41:54.557Z,14.80
2022-10-16T08:44:42.976Z,14.90
2022-10-16T08:47:19.660Z,15.00
2022-10-16T08:49:57.899Z,15.10
2022-10-16T08:52:30.240Z,15.10
2022-10-16T08:54:57.539Z,15.20
2022-10-16T08:57:27.816Z,15.30
2022-10-16T08:59:56.295Z,15.30
2022-10-16T09:02:33.551Z,15.30
2022-10-16T09:05:11.200Z,15.40
2022-10-16T09:08:05.702Z,15.50
2022-10-16T09:10:43.706Z,15.60
2022-10-16T09:13:18.144Z,15.70
2022-10-16T09:16:25.491Z,15.70
2022-10-16T09:19:21.267Z,15.90
2022-10-16T09:21:51.912Z,16.00
2022-10-16T09:24:25.516Z,16.00
2022-10-16T09:26:54.125Z,16.00
2022-10-16T09:29:22.685Z,16.10
2022-10-16T09:31:49.428Z,16.20
2022-10-16T09:34:29.812Z,16.30
2022-10-16T09:36:58.465Z,16.30
2022-10-16T09:39:25.517Z,16.40
2022-10-16T09:41:53.257Z,16.50
2022-10-16T09:44:28.964Z,16.50
2022-10-16T09:47:18.987Z,16.50
2022-10-16T09:50:03.311Z,16.50
2022-10-16T09:52:31.461Z,16.60
2022-10-16T09:55:04.137Z,16.60
2022-10-16T09:57:31.745Z,16.60
2022-10-16T09:59:59.641Z,16.70
2022-10-16T10:02:39.014Z,16.80
2022-10-16T10:05:15.104Z,17.00
2022-10-16T10:07:46.883Z,17.10
2022-10-16T10:10:31.051Z,17.30
2022-10-16T10:12:58.528Z,17.40
2022-10-16T10:15:27.733Z,17.50
2022-10-16T10:17:55.687Z,17.50
2022-10-16T10:20:35.368Z,17.40
2022-10-16T10:23:15.522Z,17.20
2022-10-16T10:26:04.086Z,17.10
2022-10-16T10:28:30.787Z,17.00
2022-10-16T10:31:25.319Z,16.90
2022-10-16T10:34:19.345Z,16.90
2022-10-16T10:36:58.505Z,17.00
2022-10-16T10:39:43.694Z,17.10
2022-10-16T10:42:20.308Z,17.20
2022-10-16T10:44:57.954Z,17.20
2022-10-16T10:47:42.810Z,17.30
2022-10-16T10:50:27.397Z,17.30
2022-10-16T10:53:19.827Z,17.40
2022-10-16T10:55:49.336Z,17.50
2022-10-16T10:58:36.048Z,17.60
2022-10-16T11:01:14.357Z,17.60
2022-10-16T11:04:11.352Z,17.60
2022-10-16T11:06:49.543Z,17.60
2022-10-16T11:09:29.281Z,17.60
2022-10-16T11:12:33.545Z,17.60
2022-10-16T11:15:17.034Z,17.70
2022-10-16T11:17:58.619Z,17.70
2022-10-16T11:20:33.613Z,17.70
2022-10-16T11:23:19.516Z,17.70
2022-10-16T11:25:48.292Z,17.70
2022-10-16T11:28:27.886Z,17.70
2022-10-16T11:31:12.366Z,17.60
2022-10-16T11:34:12.984Z,17.50
2022-10-16T11:36:48.849Z,17.50
2022-10-16T11:39:32.458Z,17.60
2022-10-16T11:42:41.903Z,17.60
2022-10-16T11:45:44.159Z,17.60
2022-10-16T11:48:31.369Z,17.60
2022-10-16T11:51:06.181Z,17.70
2022-10-16T11:54:05.372Z,17.60
2022-10-16T11:56:37.461Z,17.40
2022-10-16T11:59:32.685Z,17.30
2022-10-16T12:02:41.026Z,17.20
2022-10-16T12:05:40.902Z,17.30
2022-10-16T12:08:17.847Z,17.40
2022-10-16T12:10:47.267Z,17.70
2022-10-16T12:13:39.302Z,17.80
2022-10-16T12:16:14.896Z,18.00
2022-10-16T12:18:46.414Z,18.10
2022-10-16T12:21:19.976Z,18.20
2022-10-16T12:23:53.956Z,18.30
2022-10-16T12:26:28.527Z,18.30
2022-10-16T12:28:56.643Z,18.20
2022-10-16T12:31:25.182Z,18.10
2022-10-16T12:34:03.665Z,17.90
2022-10-16T12:36:35.378Z,17.80
2022-10-16T12:39:02.671Z,17.80
2022-10-16T12:41:40.963Z,17.70
2022-10-16T12:44:27.906Z,17.60
2022-10-16T12:46:54.634Z,17.50
2022-10-16T12:49:33.959Z,17.40
2022-10-16T12:52:00.669Z,17.40
2022-10-16T12:54:45.331Z,17.50
2022-10-16T12:57:59.458Z,17.50
2022-10-16T13:00:46.776Z,17.60
2022-10-16T13:03:51.136Z,17.70
2022-10-16T13:06:33.719Z,17.60
2022-10-16T13:09:22.163Z,17.60
2022-10-16T13:12:24.288Z,17.60
2022-10-16T13:15:31.049Z,17.60
2022-10-16T13:18:22.327Z,17.80
2022-10-16T13:20:51.777Z,17.80
2022-10-16T13:23:49.522Z,17.70
2022-10-16T13:26:40.335Z,17.70
2022-10-16T13:29:07.320Z,17.60
2022-10-16T13:31:35.220Z,17.60
2022-10-16T13:34:02.493Z,17.50
2022-10-16T13:36:32.023Z,17.50
2022-10-16T13:39:13.856Z,17.50
2022-10-16T13:41:40.832Z,17.50
2022-10-16T13:44:16.933Z,17.50
2022-10-16T13:46:43.665Z,17.50
2022-10-16T13:49:16.937Z,17.40
2022-10-16T13:51:55.863Z,17.50
2022-10-16T13:54:23.324Z,17.40
2022-10-16T13:57:02.814Z,17.40
2022-10-16T13:59:39.592Z,17.50
2022-10-16T14:02:18.377Z,17.50
2022-10-16T14:04:45.572Z,17.50
2022-10-16T14:07:21.524Z,17.40
2022-10-16T14:09:51.618Z,17.50
2022-10-16T14:12:18.708Z,17.40
2022-10-16T14:14:49.629Z,17.40
2022-10-16T14:17:31.973Z,17.40
2022-10-16T14:20:04.089Z,17.30
2022-10-16T14:22:38.079Z,17.30
2022-10-16T14:25:19.943Z,17.20
2022-10-16T14:27:58.033Z,17.20
2022-10-16T14:30:26.137Z,17.20
2022-10-16T14:32:59.280Z,17.10
2022-10-16T14:35:38.168Z,17.10
2022-10-16T14:38:07.325Z,17.00
2022-10-16T14:40:37.975Z,16.90
2022-10-16T14:43:05.875Z,16.80
2022-10-16T14:45:35.600Z,16.80
2022-10-16T14:48:07.296Z,16.80
2022-10-16T14:50:34.021Z,16.80
2022-10-16T14:53:00.997Z,16.80
2022-10-16T14:55:27.910Z,16.90
2022-10-16T14:57:58.235Z,16.80
2022-10-16T15:00:27.913Z,16.70
2022-10-16T15:02:55.712Z,16.70
2022-10-16T15:05:25.701Z,16.60
2022-10-16T15:07:55.777Z,16.50
2022-10-16T15:10:24.332Z,16.50
2022-10-16T15:12:51.107Z,16.40
2022-10-16T15:15:25.019Z,16.40
2022-10-16T15:18:01.540Z,16.30
2022-10-16T15:20:35.580Z,16.30
2022-10-16T15:23:05.035Z,16.30
2022-10-16T15:25:53.697Z,16.30
2022-10-16T15:28:21.911Z,16.30
2022-10-16T15:30:51.512Z,16.30
2022-10-16T15:33:29.701Z,16.30
2022-10-16T15:35:56.521Z,16.30
2022-10-16T15:38:24.020Z,16.20
2022-10-16T15:40:51.188Z,16.20
2022-10-16T15:43:19.285Z,16.10
2022-10-16T15:46:06.059Z,16.10
2022-10-16T15:48:34.322Z,16.10
2022-10-16T15:51:05.351Z,16.00
2022-10-16T15:53:32.128Z,16.00
2022-10-16T15:55:58.836Z,15.90
2022-10-16T15:58:25.621Z,15.90
2022-10-16T16:00:56.925Z,15.90
2022-10-16T16:03:23.883Z,15.80
2022-10-16T16:05:50.653Z,15.80
2022-10-16T16:08:17.747Z,15.80
2022-10-16T16:10:44.474Z,15.80
2022-10-16T16:13:11.803Z,15.70
2022-10-16T16:15:41.755Z,15.70
2022-10-16T16:18:10.681Z,15.70
2022-10-16T16:20:37.703Z,15.60
2022-10-16T16:23:04.442Z,15.60
2022-10-16T16:25:31.640Z,15.60
2022-10-16T16:27:58.422Z,15.50
2022-10-16T16:30:28.189Z,15.50
2022-10-16T16:32:55.308Z,15.50
2022-10-16T16:35:24.785Z,15.40
2022-10-16T16:37:51.974Z,15.40
2022-10-16T16:40:19.029Z,15.30
2022-10-16T16:42:57.780Z,15.30
2022-10-16T16:45:29.404Z,15.20
2022-10-16T16:47:56.253Z,15.10
2022-10-16T16:50:22.952Z,15.10
2022-10-16T16:52:49.694Z,15.00
2022-10-16T16:55:16.481Z,14.90
2022-10-16T16:57:43.186Z,14.80
2022-10-16T17:00:10.839Z,14.70
2022-10-16T17:02:37.621Z,14.70
2022-10-16T17:05:04.450Z,14.70
2022-10-16T17:07:33.887Z,14.60
2022-10-16T17:10:01.851Z,14.50
2022-10-16T17:12:31.154Z,14.50
2022-10-16T17:14:57.860Z,14.50
2022-10-16T17:17:25.045Z,14.40
2022-10-16T17:19:52.481Z,14.40
2022-10-16T17:22:20.187Z,14.40
2022-10-16T17:24:52.060Z,14.40
2022-10-16T17:27:19.770Z,14.30
2022-10-16T17:29:50.462Z,14.30
2022-10-16T17:32:17.203Z,14.30
2022-10-16T17:34:43.893Z,14.20
2022-10-16T17:37:14.291Z,14.30
2022-10-16T17:39:43.923Z,14.20
2022-10-16T17:42:10.661Z,14.20
2022-10-16T17:44:37.377Z,14.30
2022-10-16T17:47:04.141Z,14.30
2022-10-16T17:49:30.851Z,14.30
2022-10-16T17:51:57.613Z,14.30
2022-10-16T17:54:24.401Z,14.30
2022-10-16T17:56:51.143Z,14.30
2022-10-16T17:59:17.977Z,14.30
2022-10-16T18:01:46.470Z,14.30
2022-10-16T18:04:16.206Z,14.30
2022-10-16T18:06:44.213Z,14.40
2022-10-16T18:09:14.170Z,14.40
2022-10-16T18:11:41.045Z,14.40
2022-10-16T18:14:07.755Z,14.40
2022-10-16T18:16:36.711Z,14.30
2022-10-16T18:19:04.200Z,14.30
2022-10-16T18:21:31.287Z,14.20
2022-10-16T18:23:59.929Z,14.20
2022-10-16T18:26:27.373Z,14.20
2022-10-16T18:28:56.189Z,14.10
2022-10-16T18:31:23.686Z,14.10
2022-10-16T18:33:51.363Z,14.10
2022-10-16T18:36:30.831Z,14.10
2022-10-16T18:39:01.272Z,14.10
2022-10-16T18:41:57.792Z,14.10
2022-10-16T18:44:32.743Z,14.00
2022-10-16T18:46:59.527Z,14.00
2022-10-16T18:49:26.425Z,14.00
2022-10-16T18:51:56.874Z,14.00
2022-10-16T18:54:24.770Z,13.90
2022-10-16T18:56:53.057Z,13.90
2022-10-16T18:59:19.780Z,13.90
2022-10-16T19:01:48.662Z,13.90
2022-10-16T19:04:17.188Z,13.90
2022-10-16T19:06:46.857Z,13.90
2022-10-16T19:09:15.407Z,13.90
2022-10-16T19:11:42.830Z,13.90
2022-10-16T19:14:13.428Z,13.90
2022-10-16T19:16:42.873Z,13.90
2022-10-16T19:19:14.086Z,13.90
2022-10-16T19:21:41.235Z,13.90
2022-10-16T19:24:09.148Z,13.90
2022-10-16T19:26:38.162Z,13.90
2022-10-16T19:29:09.195Z,13.90
2022-10-16T19:31:35.989Z,13.90
2022-10-16T19:34:04.424Z,13.90
2022-10-16T19:36:33.792Z,14.00
2022-10-16T19:39:05.275Z,13.90
2022-10-16T19:41:32.728Z,14.00
2022-10-16T19:44:04.648Z,13.90
2022-10-16T19:46:32.054Z,14.00
2022-10-16T19:49:01.416Z,14.00
2022-10-16T19:51:29.229Z,14.00
2022-10-16T19:53:58.433Z,14.00
2022-10-16T19:56:27.656Z,13.90
2022-10-16T19:58:56.000Z,13.90
2022-10-16T20:01:24.346Z,13.90
2022-10-16T20:03:51.208Z,13.80
2022-10-16T20:06:19.876Z,13.90
2022-10-16T20:08:49.852Z,13.80
2022-10-16T20:11:21.968Z,13.80
2022-10-16T20:13:49.591Z,13.90
2022-10-16T20:16:19.113Z,13.90
2022-10-16T20:18:47.606Z,13.90
2022-10-16T20:21:34.301Z,14.00
2022-10-16T20:24:05.225Z,14.00
2022-10-16T20:26:32.246Z,14.00
2022-10-16T20:28:59.160Z,14.10
2022-10-16T20:31:28.364Z,14.10
2022-10-16T20:33:56.795Z,14.10
2022-10-16T20:36:25.861Z,14.00
2022-10-16T20:38:53.272Z,13.90
2022-10-16T20:41:20.800Z,13.90
2022-10-16T20:43:49.191Z,13.90
2022-10-16T20:46:22.235Z,13.80
2022-10-16T20:48:50.061Z,13.80
2022-10-16T20:51:25.605Z,13.80
2022-10-16T20:54:03.896Z,13.80
2022-10-16T20:56:33.357Z,13.80
2022-10-16T20:59:00.258Z,13.80
2022-10-16T21:01:29.354Z,13.80
2022-10-16T21:03:58.683Z,13.80
2022-10-16T21:06:26.151Z,13.80
2022-10-16T21:08:53.368Z,13.80
2022-10-16T21:11:21.699Z,13.80
2022-10-16T21:13:48.990Z,13.80
2022-10-16T21:16:16.109Z,13.80
2022-10-16T21:18:44.781Z,13.70
2022-10-16T21:21:19.536Z,13.70
2022-10-16T21:23:46.876Z,13.70
2022-10-16T21:26:13.652Z,13.70
2022-10-16T21:28:40.467Z,13.60
2022-10-16T21:31:22.355Z,13.60
2022-10-16T21:33:50.578Z,13.60
2022-10-16T21:36:23.010Z,13.60
2022-10-16T21:38:50.108Z,13.60
2022-10-16T21:41:25.695Z,13.60
2022-10-16T21:43:53.696Z,13.60
2022-10-16T21:46:22.144Z,13.60
2022-10-16T21:48:49.070Z,13.50
2022-10-16T21:51:16.049Z,13.50
2022-10-16T21:53:42.798Z,13.50
2022-10-16T21:56:14.662Z,13.50
2022-10-16T21:58:41.787Z,13.50
2022-10-16T22:01:11.389Z,13.50
2022-10-16T22:03:38.248Z,13.40
2022-10-16T22:06:06.958Z,13.40
2022-10-16T22:08:34.878Z,13.40
2022-10-16T22:11:10.702Z,13.40
2022-10-16T22:13:37.882Z,13.40
2022-10-16T22:16:05.160Z,13.30
2022-10-16T22:18:32.458Z,13.30
2022-10-16T22:20:59.722Z,13.30
2022-10-16T22:23:26.811Z,13.20
2022-10-16T22:26:06.487Z,13.20
2022-10-16T22:28:33.766Z,13.10
2022-10-16T22:31:10.081Z,13.10
2022-10-16T22:33:37.152Z,13.00
2022-10-16T22:36:06.500Z,13.10
2022-10-16T22:38:34.488Z,13.00
2022-10-16T22:41:05.751Z,13.00
2022-10-16T22:43:35.894Z,13.00
2022-10-16T22:46:07.696Z,12.90
2022-10-16T22:48:35.295Z,12.90
2022-10-16T22:51:02.440Z,12.90
2022-10-16T22:53:29.198Z,12.90
2022-10-16T22:55:56.190Z,12.80
2022-10-16T22:58:23.286Z,12.80
2022-10-16T23:00:50.606Z,12.80
2022-10-16T23:03:17.566Z,12.80
2022-10-16T23:05:44.770Z,12.80
2022-10-16T23:08:12.328Z,12.80
2022-10-16T23:10:44.145Z,12.80
2022-10-16T23:13:11.408Z,12.70
2022-10-16T23:15:42.840Z,12.70
2022-10-16T23:18:09.845Z,12.70
2022-10-16T23:20:39.775Z,12.70
2022-10-16T23:23:06.861Z,12.70
2022-10-16T23:25:33.621Z,12.70
2022-10-16T23:28:00.300Z,12.70
2022-10-16T23:30:27.062Z,12.70
2022-10-16T23:32:53.740Z,12.70
2022-10-16T23:35:20.470Z,12.70
2022-10-16T23:37:47.177Z,12.70
2022-10-16T23:40:13.895Z,12.70
2022-10-16T23:42:40.585Z,12.70
2022-10-16T23:45:07.560Z,12.60
2022-10-16T23:47:34.265Z,12.60
2022-10-16T23:50:01.019Z,12.60
2022-10-16T23:52:27.715Z,12.60
2022-10-16T23:54:54.402Z,12.60
2022-10-16T23:57:21.152Z,12.60
2022-10-16T23:59:47.859Z,12.60
